createdAt,value
2018-10-06T00:00:07.324Z,98790.80
2018-10-06T00:02:36.538Z,98786.57
2018-10-06T00:05:05.330Z,98787.89
2018-10-06T00:07:33.718Z,98783.58
2018-10-06T00:10:02.030Z,98777.42
2018-10-06T00:12:30.419Z,98782.85
2018-10-06T00:14:58.973Z,98780.33
2018-10-06T00:17:27.556Z,98780.80
2018-10-06T00:19:56.898Z,98774.65
2018-10-06T00:22:25.987Z,98773.45
2018-10-06T00:24:54.320Z,98766.95
2018-10-06T00:27:22.738Z,98768.66
2018-10-06T00:29:51.065Z,98769.59
2018-10-06T00:32:19.431Z,98764.90
2018-10-06T00:34:47.803Z,98764.08
2018-10-06T00:37:16.089Z,98768.53
2018-10-06T00:39:44.394Z,98760.70
2018-10-06T00:42:12.843Z,98759.86
2018-10-06T00:44:41.208Z,98759.13
2018-10-06T00:47:10.537Z,98757.94
2018-10-06T00:49:39.172Z,98761.56
2018-10-06T00:52:07.519Z,98762.51
2018-10-06T00:54:35.842Z,98759.38
2018-10-06T00:57:04.159Z,98761.30
2018-10-06T00:59:32.483Z,98754.21
2018-10-06T01:02:00.822Z,98753.48
2018-10-06T01:04:29.092Z,98753.95
2018-10-06T01:06:57.467Z,98753.14
2018-10-06T01:09:25.779Z,98741.94
2018-10-06T01:11:54.154Z,98744.09
2018-10-06T01:14:22.443Z,98734.94
2018-10-06T01:16:50.851Z,98726.65
2018-10-06T01:19:19.159Z,98721.34
2018-10-06T01:21:47.552Z,98726.05
2018-10-06T01:24:15.881Z,98724.59
2018-10-06T01:26:44.271Z,98724.72
2018-10-06T01:29:12.880Z,98721.35
2018-10-06T01:31:41.377Z,98719.20
2018-10-06T01:34:09.974Z,98717.88
2018-10-06T01:36:38.541Z,98716.18
2018-10-06T01:39:07.757Z,98704.98
2018-10-06T01:41:36.053Z,98705.84
2018-10-06T01:44:04.459Z,98710.06
2018-10-06T01:46:32.763Z,98706.44
2018-10-06T01:49:01.076Z,98706.56
2018-10-06T01:51:29.419Z,98703.06
2018-10-06T01:53:57.810Z,98697.04
2018-10-06T01:56:26.203Z,98691.88
2018-10-06T01:58:54.532Z,98693.70
2018-10-06T02:01:22.863Z,98694.64
2018-10-06T02:03:51.166Z,98692.00
2018-10-06T02:06:19.494Z,98692.98
2018-10-06T02:08:47.841Z,98689.25
2018-10-06T02:11:16.227Z,98692.38
2018-10-06T02:13:44.575Z,98695.15
2018-10-06T02:16:12.915Z,98689.86
2018-10-06T02:18:41.290Z,98686.83
2018-10-06T02:21:09.610Z,98687.33
2018-10-06T02:23:37.968Z,98679.98
2018-10-06T02:26:06.658Z,98680.93
2018-10-06T02:28:35.097Z,98685.53
2018-10-06T02:31:03.434Z,98682.03
2018-10-06T02:33:31.766Z,98681.91
2018-10-06T02:36:00.068Z,98686.35
2018-10-06T02:38:28.468Z,98678.91
2018-10-06T02:40:56.774Z,98673.84
2018-10-06T02:43:25.139Z,98674.69
2018-10-06T02:45:53.490Z,98667.59
2018-10-06T02:48:21.799Z,98663.75
2018-10-06T02:50:50.095Z,98665.55
2018-10-06T02:53:18.603Z,98663.75
2018-10-06T02:55:46.963Z,98657.61
2018-10-06T02:58:15.378Z,98663.25
2018-10-06T03:00:43.671Z,98657.27
2018-10-06T03:03:12.006Z,98661.70
2018-10-06T03:05:40.319Z,98656.62
2018-10-06T03:08:08.661Z,98653.48
2018-10-06T03:10:36.999Z,98654.80
2018-10-06T03:13:05.338Z,98653.60
2018-10-06T03:15:33.663Z,98647.61
2018-10-06T03:18:01.958Z,98643.64
2018-10-06T03:20:30.420Z,98641.47
2018-10-06T03:22:58.710Z,98635.70
2018-10-06T03:25:27.002Z,98629.18
2018-10-06T03:27:55.402Z,98624.39
2018-10-06T03:30:23.736Z,98625.33
2018-10-06T03:32:52.022Z,98616.57
2018-10-06T03:35:20.549Z,98619.69
2018-10-06T03:37:48.854Z,98610.90
2018-10-06T03:40:17.189Z,98606.08
2018-10-06T03:42:45.483Z,98606.58
2018-10-06T03:45:13.850Z,98607.53
2018-10-06T03:47:42.135Z,98605.86
2018-10-06T03:50:10.446Z,98605.86
2018-10-06T03:52:38.778Z,98605.86
2018-10-06T03:55:07.180Z,98606.45
2018-10-06T03:57:35.472Z,98600.56
2018-10-06T04:00:03.817Z,98598.05
2018-10-06T04:02:32.090Z,98594.07
2018-10-06T04:05:00.455Z,98594.07
2018-10-06T04:07:28.786Z,98590.36
2018-10-06T04:09:57.087Z,98585.06
2018-10-06T04:12:25.503Z,98580.23
2018-10-06T04:14:53.895Z,98576.75
2018-10-06T04:17:22.394Z,98570.85
2018-10-06T04:19:50.826Z,98568.67
2018-10-06T04:22:19.182Z,98570.50
2018-10-06T04:24:47.589Z,98564.48
2018-10-06T04:27:16.055Z,98564.11
2018-10-06T04:29:44.402Z,98567.61
2018-10-06T04:32:12.842Z,98558.34
2018-10-06T04:34:41.200Z,98553.65
2018-10-06T04:37:09.583Z,98551.86
2018-10-06T04:39:37.942Z,98548.86
2018-10-06T04:42:06.304Z,98545.36
2018-10-06T04:44:34.738Z,98541.02
2018-10-06T04:47:03.046Z,98538.16
2018-10-06T04:49:31.371Z,98542.25
2018-10-06T04:51:59.734Z,98536.23
2018-10-06T04:54:28.066Z,98543.10
2018-10-06T04:56:56.358Z,98548.02
2018-10-06T04:59:24.907Z,98547.89
2018-10-06T05:01:53.178Z,98553.69
2018-10-06T05:04:21.516Z,98546.47
2018-10-06T05:06:49.818Z,98551.27
2018-10-06T05:09:18.179Z,98547.42
2018-10-06T05:11:46.511Z,98541.31
2018-10-06T05:14:14.822Z,98543.58
2018-10-06T05:16:43.363Z,98549.59
2018-10-06T05:19:11.715Z,98542.98
2018-10-06T05:21:41.165Z,98543.45
2018-10-06T05:24:09.488Z,98542.63
2018-10-06T05:26:37.847Z,98546.22
2018-10-06T05:29:06.187Z,98541.41
2018-10-06T05:31:34.550Z,98545.16
2018-10-06T05:34:02.955Z,98542.51
2018-10-06T05:36:31.310Z,98546.70
2018-10-06T05:38:59.650Z,98533.00
2018-10-06T05:41:28.404Z,98531.80
2018-10-06T05:49:07.950Z,98526.41
2018-10-06T05:51:36.462Z,98530.86
2018-10-06T05:54:05.015Z,98523.39
2018-10-06T05:56:34.312Z,98524.72
2018-10-06T05:59:05.188Z,98523.05
2018-10-06T06:01:34.141Z,98527.86
2018-10-06T06:04:02.571Z,98521.72
2018-10-06T06:06:30.939Z,98518.23
2018-10-06T06:08:59.956Z,98519.42
2018-10-06T06:11:30.715Z,98513.91
2018-10-06T06:14:00.244Z,98518.70
2018-10-06T06:16:28.710Z,98524.72
2018-10-06T06:18:57.161Z,98524.23
2018-10-06T06:21:25.993Z,98520.14
2018-10-06T06:23:54.590Z,98521.81
2018-10-06T06:26:23.381Z,98522.16
2018-10-06T06:28:51.880Z,98524.58
2018-10-06T06:31:20.360Z,98526.12
2018-10-06T06:33:48.886Z,98537.17
2018-10-06T06:36:17.298Z,98535.11
2018-10-06T06:38:45.610Z,98529.56
2018-10-06T06:41:14.002Z,98523.54
2018-10-06T06:43:42.448Z,98522.81
2018-10-06T06:46:10.738Z,98520.75
2018-10-06T06:48:39.162Z,98520.40
2018-10-06T06:51:07.498Z,98520.52
2018-10-06T06:53:35.794Z,98520.63
2018-10-06T06:56:04.217Z,98516.40
2018-10-06T06:58:32.528Z,98515.53
2018-10-06T07:01:00.867Z,98513.95
2018-10-06T07:03:31.785Z,98512.73
2018-10-06T07:06:00.628Z,98510.67
2018-10-06T07:08:29.762Z,98509.94
2018-10-06T07:10:58.686Z,98509.16
2018-10-06T07:13:27.642Z,98512.27
2018-10-06T07:15:56.095Z,98514.89
2018-10-06T07:18:24.643Z,98515.00
2018-10-06T07:20:53.012Z,98512.43
2018-10-06T07:23:21.315Z,98513.52
2018-10-06T07:25:52.284Z,98508.30
2018-10-06T07:28:20.706Z,98513.23
2018-10-06T07:30:49.167Z,98511.16
2018-10-06T07:33:17.550Z,98511.73
2018-10-06T07:35:45.916Z,98508.24
2018-10-06T07:38:15.039Z,98508.92
2018-10-06T07:40:43.356Z,98509.03
2018-10-06T07:43:11.761Z,98507.30
2018-10-06T07:45:40.316Z,98501.24
2018-10-06T07:48:08.683Z,98510.25
2018-10-06T07:50:37.826Z,98511.06
2018-10-06T07:53:06.270Z,98513.45
2018-10-06T07:55:35.339Z,98514.73
2018-10-06T07:58:03.763Z,98512.66
2018-10-06T08:00:32.179Z,98499.13
2018-10-06T08:03:01.260Z,98503.06
2018-10-06T08:05:30.215Z,98500.13
2018-10-06T08:07:59.332Z,98491.90
2018-10-06T08:10:28.372Z,98498.63
2018-10-06T08:12:56.851Z,98493.52
2018-10-06T08:15:25.228Z,98493.14
2018-10-06T08:17:53.740Z,98490.06
2018-10-06T08:20:22.424Z,98493.66
2018-10-06T08:22:51.198Z,98494.59
2018-10-06T08:25:19.659Z,98492.85
2018-10-06T08:27:48.044Z,98485.94
2018-10-06T08:30:18.203Z,98481.05
2018-10-06T08:32:46.763Z,98488.40
2018-10-06T08:35:15.308Z,98485.69
2018-10-06T08:37:44.215Z,98475.49
2018-10-06T08:40:12.596Z,98477.24
2018-10-06T08:42:41.100Z,98476.48
2018-10-06T08:45:09.485Z,98476.05
2018-10-06T08:47:37.976Z,98475.63
2018-10-06T08:50:06.323Z,98470.39
2018-10-06T08:52:35.211Z,98467.82
2018-10-06T08:55:03.533Z,98461.23
2018-10-06T08:57:31.848Z,98458.17
2018-10-06T09:00:00.227Z,98461.05
2018-10-06T09:02:28.583Z,98465.11
2018-10-06T09:04:57.006Z,98461.31
2018-10-06T09:07:28.372Z,98458.73
2018-10-06T09:09:57.180Z,98455.64
2018-10-06T09:12:26.233Z,98447.38
2018-10-06T09:14:54.778Z,98451.59
2018-10-06T09:17:23.358Z,98450.81
2018-10-06T09:19:53.227Z,98446.53
2018-10-06T09:22:21.712Z,98453.59
2018-10-06T09:24:50.164Z,98452.33
2018-10-06T09:27:19.146Z,98452.73
2018-10-06T09:29:47.600Z,98450.97
2018-10-06T09:32:15.997Z,98449.05
2018-10-06T09:34:47.075Z,98451.30
2018-10-06T09:37:16.713Z,98448.67
2018-10-06T09:39:45.768Z,98451.70
2018-10-06T09:42:14.321Z,98456.81
2018-10-06T09:44:43.023Z,98450.20
2018-10-06T09:47:12.668Z,98443.41
2018-10-06T09:49:41.267Z,98439.00
2018-10-06T09:52:09.767Z,98434.22
2018-10-06T09:54:38.259Z,98431.59
2018-10-06T09:57:06.676Z,98427.66
2018-10-06T09:59:35.194Z,98425.73
2018-10-06T10:02:10.791Z,98424.13
2018-10-06T10:04:39.486Z,98428.36
2018-10-06T10:07:07.941Z,98413.42
2018-10-06T10:09:36.247Z,98406.45
2018-10-06T10:12:35.457Z,98405.19
2018-10-06T10:15:04.228Z,98404.03
2018-10-06T10:17:32.771Z,98409.41
2018-10-06T10:20:01.849Z,98403.30
2018-10-06T10:22:30.675Z,98406.98
2018-10-06T10:25:00.205Z,98407.03
2018-10-06T10:27:28.614Z,98406.12
2018-10-06T10:29:56.936Z,98403.63
2018-10-06T10:32:27.336Z,98408.00
2018-10-06T10:34:55.826Z,98400.40
2018-10-06T10:37:26.997Z,98400.45
2018-10-06T10:39:56.053Z,98403.01
2018-10-06T10:42:25.064Z,98392.89
2018-10-06T10:44:53.602Z,98394.23
2018-10-06T10:47:24.071Z,98390.28
2018-10-06T10:49:52.809Z,98390.81
2018-10-06T10:52:21.809Z,98384.17
2018-10-06T10:54:50.400Z,98379.73
2018-10-06T10:57:18.797Z,98380.59
2018-10-06T10:59:47.930Z,98378.45
2018-10-06T11:02:18.339Z,98379.30
2018-10-06T11:04:47.482Z,98383.86
2018-10-06T11:07:15.762Z,98370.58
2018-10-06T11:09:44.274Z,98366.59
2018-10-06T11:12:13.523Z,98362.14
2018-10-06T11:14:41.927Z,98366.31
2018-10-06T11:17:11.125Z,98362.67
2018-10-06T11:19:40.188Z,98366.38
2018-10-06T11:22:09.306Z,98356.56
2018-10-06T11:24:37.787Z,98347.91
2018-10-06T11:27:08.428Z,98346.59
2018-10-06T11:29:40.057Z,98338.42
2018-10-06T11:32:08.639Z,98348.96
2018-10-06T11:34:37.191Z,98350.48
2018-10-06T11:42:09.267Z,98329.84
2018-10-06T11:44:37.791Z,98324.69
2018-10-06T11:47:07.735Z,98329.70
2018-10-06T11:49:37.111Z,98308.52
2018-10-06T11:52:07.847Z,98311.38
2018-10-06T11:54:36.256Z,98302.39
2018-10-06T11:57:06.949Z,98302.91
2018-10-06T11:59:35.407Z,98296.59
2018-10-06T12:02:03.966Z,98293.93
2018-10-06T12:04:33.050Z,98291.59
2018-10-06T12:07:02.486Z,98284.42
2018-10-06T12:09:31.575Z,98277.59
2018-10-06T12:11:59.998Z,98282.92
2018-10-06T12:14:34.044Z,98283.41
2018-10-06T12:17:02.921Z,98271.41
2018-10-06T12:19:31.343Z,98274.08
2018-10-06T12:21:59.648Z,98275.09
2018-10-06T12:24:27.978Z,98277.41
2018-10-06T12:26:56.335Z,98272.59
2018-10-06T12:29:24.938Z,98270.90
2018-10-06T12:31:53.355Z,98275.42
2018-10-06T12:34:21.918Z,98265.73
2018-10-06T12:36:50.352Z,98267.23
2018-10-06T12:39:18.771Z,98261.54
2018-10-06T12:41:47.160Z,98259.36
2018-10-06T12:44:15.591Z,98251.69
2018-10-06T12:46:43.910Z,98256.34
2018-10-06T12:49:12.351Z,98259.34
2018-10-06T12:51:40.791Z,98251.80
2018-10-06T12:54:09.671Z,98249.80
2018-10-06T12:56:38.253Z,98249.47
2018-10-06T12:59:06.950Z,98247.45
2018-10-06T13:01:36.142Z,98247.63
2018-10-06T13:04:04.547Z,98251.62
2018-10-06T13:06:32.878Z,98242.78
2018-10-06T13:09:01.438Z,98239.47
2018-10-06T13:11:29.888Z,98235.63
2018-10-06T13:13:58.266Z,98234.78
2018-10-06T13:16:26.696Z,98230.43
2018-10-06T13:18:55.019Z,98227.44
2018-10-06T13:21:23.343Z,98230.27
2018-10-06T13:23:51.702Z,98229.59
2018-10-06T13:26:20.095Z,98220.42
2018-10-06T13:28:48.468Z,98227.58
2018-10-06T13:31:16.932Z,98222.41
2018-10-06T13:33:45.284Z,98225.08
2018-10-06T13:36:13.620Z,98218.09
2018-10-06T13:38:41.998Z,98219.91
2018-10-06T13:41:10.374Z,98219.91
2018-10-06T13:43:38.763Z,98216.92
2018-10-06T13:46:07.170Z,98217.89
2018-10-06T13:48:35.531Z,98213.58
2018-10-06T13:51:04.346Z,98216.73
2018-10-06T13:53:32.662Z,98217.73
2018-10-06T13:56:01.072Z,98223.23
2018-10-06T13:58:29.413Z,98210.39
2018-10-06T14:00:58.231Z,98209.22
2018-10-06T14:03:26.993Z,98210.88
2018-10-06T14:05:55.600Z,98202.53
2018-10-06T14:08:24.248Z,98197.69
2018-10-06T14:10:52.881Z,98205.04
2018-10-06T14:13:21.457Z,98200.20
2018-10-06T14:15:50.402Z,98195.52
2018-10-06T14:18:18.941Z,98194.34
2018-10-06T14:20:47.303Z,98193.18
2018-10-06T14:23:16.699Z,98195.00
2018-10-06T14:25:45.100Z,98189.84
2018-10-06T14:28:13.423Z,98186.00
2018-10-06T14:30:41.782Z,98185.16
2018-10-06T14:33:10.202Z,98177.48
2018-10-06T14:35:38.627Z,98180.28
2018-10-06T14:38:06.981Z,98177.30
2018-10-06T14:40:35.778Z,98167.61
2018-10-06T14:43:04.347Z,98170.28
2018-10-06T14:45:32.833Z,98170.77
2018-10-06T14:48:01.248Z,98173.11
2018-10-06T14:50:30.628Z,98164.79
2018-10-06T14:52:58.971Z,98164.44
2018-10-06T14:55:27.318Z,98157.77
2018-10-06T14:57:55.636Z,98156.95
2018-10-06T15:00:23.991Z,98154.10
2018-10-06T15:02:52.355Z,98150.11
2018-10-06T15:05:20.704Z,98145.43
2018-10-06T15:07:49.040Z,98144.09
2018-10-06T15:10:17.415Z,98138.61
2018-10-06T15:12:45.771Z,98139.42
2018-10-06T15:15:14.062Z,98134.78
2018-10-06T15:17:42.539Z,98141.08
2018-10-06T15:20:11.106Z,98140.76
2018-10-06T15:22:40.170Z,98135.91
2018-10-06T15:25:08.829Z,98139.06
2018-10-06T15:27:37.474Z,98143.75
2018-10-06T15:30:06.483Z,98136.41
2018-10-06T15:32:34.823Z,98133.39
2018-10-06T15:35:03.189Z,98136.57
2018-10-06T15:37:31.521Z,98136.21
2018-10-06T15:39:59.858Z,98139.40
2018-10-06T15:42:28.243Z,98132.88
2018-10-06T15:44:56.596Z,98133.39
2018-10-06T15:47:24.981Z,98123.71
2018-10-06T15:49:53.270Z,98131.70
2018-10-06T15:52:21.712Z,98134.36
2018-10-06T15:54:50.018Z,98131.86
2018-10-06T15:57:18.337Z,98132.88
2018-10-06T15:59:46.839Z,98140.02
2018-10-06T16:02:15.148Z,98140.18
2018-10-06T16:04:43.471Z,98139.50
2018-10-06T16:07:11.899Z,98146.64
2018-10-06T16:09:40.278Z,98138.81
2018-10-06T16:12:08.612Z,98141.48
2018-10-06T16:14:36.931Z,98137.65
2018-10-06T16:17:05.255Z,98139.98
2018-10-06T16:19:33.557Z,98139.63
2018-10-06T16:22:01.923Z,98144.62
2018-10-06T16:24:30.246Z,98137.65
2018-10-06T16:26:58.618Z,98139.14
2018-10-06T16:29:26.958Z,98147.26
2018-10-06T16:31:55.340Z,98141.61
2018-10-06T16:34:23.753Z,98139.95
2018-10-06T16:36:52.099Z,98137.58
2018-10-06T16:39:20.425Z,98139.92
2018-10-06T16:41:48.799Z,98142.39
2018-10-06T16:44:17.200Z,98141.22
2018-10-06T16:46:45.543Z,98142.87
2018-10-06T16:49:13.962Z,98142.55
2018-10-06T16:51:42.324Z,98140.05
2018-10-06T16:54:10.671Z,98142.51
2018-10-06T16:56:40.074Z,98145.78
2018-10-06T16:59:08.385Z,98142.80
2018-10-06T17:01:36.790Z,98142.95
2018-10-06T17:04:05.081Z,98145.42
2018-10-06T17:06:33.450Z,98151.75
2018-10-06T17:09:01.793Z,98152.39
2018-10-06T17:11:30.123Z,98155.70
2018-10-06T17:13:58.468Z,98163.00
2018-10-06T17:16:27.952Z,98161.02
2018-10-06T17:18:56.266Z,98161.30
2018-10-06T17:21:24.572Z,98167.14
2018-10-06T17:23:52.931Z,98170.94
2018-10-06T17:26:21.276Z,98170.61
2018-10-06T17:28:49.554Z,98168.59
2018-10-06T17:31:18.059Z,98169.59
2018-10-06T17:33:46.315Z,98168.55
2018-10-06T17:36:14.631Z,98171.21
2018-10-06T17:38:43.052Z,98171.52
2018-10-06T17:41:11.368Z,98176.16
2018-10-06T17:43:39.844Z,98178.66
2018-10-06T17:46:08.318Z,98187.12
2018-10-06T17:48:36.654Z,98184.13
2018-10-06T17:51:04.951Z,98190.94
2018-10-06T17:53:36.442Z,98188.28
2018-10-06T17:56:04.750Z,98194.24
2018-10-06T17:58:33.149Z,98197.05
2018-10-06T18:01:01.472Z,98199.72
2018-10-06T18:03:29.859Z,98205.68
2018-10-06T18:05:58.200Z,98209.31
2018-10-06T18:08:26.563Z,98206.96
2018-10-06T18:10:54.894Z,98211.11
2018-10-06T18:13:23.248Z,98211.27
2018-10-06T18:15:51.523Z,98214.92
2018-10-06T18:18:19.934Z,98211.58
2018-10-06T18:20:48.274Z,98210.24
2018-10-06T18:23:16.639Z,98214.88
2018-10-06T18:25:44.939Z,98217.53
2018-10-06T18:28:13.331Z,98223.98
2018-10-06T18:30:41.695Z,98216.52
2018-10-06T18:33:10.036Z,98216.52
2018-10-06T18:35:40.471Z,98220.66
2018-10-06T18:38:09.000Z,98225.13
2018-10-06T18:40:37.404Z,98228.28
2018-10-06T18:43:06.928Z,98221.78
2018-10-06T18:45:35.215Z,98226.77
2018-10-06T18:48:03.623Z,98226.05
2018-10-06T18:50:32.295Z,98230.04
2018-10-06T18:53:01.031Z,98232.70
2018-10-06T18:55:29.708Z,98230.67
2018-10-06T18:57:58.416Z,98234.66
2018-10-06T19:00:26.735Z,98236.48
2018-10-06T19:02:55.159Z,98237.96
2018-10-06T19:05:23.455Z,98239.80
2018-10-06T19:07:51.771Z,98238.59
2018-10-06T19:10:20.079Z,98242.59
2018-10-06T19:12:48.427Z,98249.75
2018-10-06T19:15:21.960Z,98249.06
2018-10-06T19:17:50.322Z,98255.86
2018-10-06T19:20:18.602Z,98256.34
2018-10-06T19:22:47.067Z,98255.86
2018-10-06T19:25:15.343Z,98258.16
2018-10-06T19:27:43.757Z,98264.14
2018-10-06T19:30:12.058Z,98263.78
2018-10-06T19:32:40.387Z,98266.59
2018-10-06T19:35:08.752Z,98270.91
2018-10-06T19:37:37.123Z,98265.41
2018-10-06T19:40:05.687Z,98277.86
2018-10-06T19:42:34.998Z,98268.70
2018-10-06T19:45:03.345Z,98271.52
2018-10-06T19:47:31.671Z,98277.31
2018-10-06T19:50:00.058Z,98271.19
2018-10-06T19:52:28.419Z,98276.66
2018-10-06T19:54:56.723Z,98281.61
2018-10-06T19:57:25.149Z,98282.09
2018-10-06T19:59:53.464Z,98279.41
2018-10-06T20:02:21.766Z,98280.09
2018-10-06T20:04:50.079Z,98280.25
2018-10-06T20:07:18.402Z,98279.41
2018-10-06T20:09:47.934Z,98281.70
2018-10-06T20:12:16.337Z,98281.03
2018-10-06T20:14:45.682Z,98286.47
2018-10-06T20:17:14.110Z,98283.97
2018-10-06T20:19:42.418Z,98290.61
2018-10-06T20:22:12.479Z,98294.27
2018-10-06T20:24:40.920Z,98295.11
2018-10-06T20:27:09.542Z,98299.73
2018-10-06T20:29:38.020Z,98305.52
2018-10-06T20:32:06.359Z,98302.53
2018-10-06T20:34:34.715Z,98307.16
2018-10-06T20:37:04.090Z,98309.33
2018-10-06T20:39:32.425Z,98311.63
2018-10-06T20:42:01.087Z,98311.29
2018-10-06T20:44:29.456Z,98307.45
2018-10-06T20:46:57.739Z,98312.07
2018-10-06T20:49:26.122Z,98312.07
2018-10-06T20:51:54.423Z,98314.37
2018-10-06T20:54:23.068Z,98308.72
2018-10-06T20:56:51.388Z,98314.03
2018-10-06T20:59:19.747Z,98315.52
2018-10-06T21:01:48.429Z,98313.30
2018-10-06T21:04:16.806Z,98320.97
2018-10-06T21:06:45.334Z,98315.81
2018-10-06T21:09:14.162Z,98316.77
2018-10-06T21:11:42.870Z,98317.77
2018-10-06T21:14:12.234Z,98316.11
2018-10-06T21:16:40.905Z,98319.73
2018-10-06T21:19:09.322Z,98319.73
2018-10-06T21:21:37.611Z,98325.19
2018-10-06T21:24:05.927Z,98322.68
2018-10-06T21:26:34.250Z,98330.65
2018-10-06T21:29:03.552Z,98323.67
2018-10-06T21:31:31.921Z,98328.29
2018-10-06T21:34:00.177Z,98323.13
2018-10-06T21:36:28.524Z,98323.61
2018-10-06T21:38:57.349Z,98315.27
2018-10-06T21:41:25.880Z,98315.78
2018-10-06T21:43:54.324Z,98315.39
2018-10-06T21:46:22.638Z,98317.37
2018-10-06T21:48:50.926Z,98308.19
2018-10-06T21:51:19.255Z,98314.02
2018-10-06T21:53:47.559Z,98324.80
2018-10-06T21:56:15.883Z,98322.28
2018-10-06T21:58:45.274Z,98328.08
2018-10-06T22:01:14.550Z,98327.86
2018-10-06T22:03:43.163Z,98329.81
2018-10-06T22:06:11.503Z,98333.47
2018-10-06T22:08:40.059Z,98333.61
2018-10-06T22:11:08.389Z,98335.94
2018-10-06T22:13:36.739Z,98336.89
2018-10-06T22:16:05.110Z,98340.55
2018-10-06T22:18:33.398Z,98338.03
2018-10-06T22:21:01.812Z,98348.99
2018-10-06T22:23:30.127Z,98339.00
2018-10-06T22:25:58.452Z,98347.48
2018-10-06T22:28:26.743Z,98343.12
2018-10-06T22:30:55.123Z,98343.27
2018-10-06T22:33:23.422Z,98339.91
2018-10-06T22:35:51.780Z,98338.11
2018-10-06T22:38:20.199Z,98335.59
2018-10-06T22:40:48.506Z,98337.07
2018-10-06T22:43:16.834Z,98340.20
2018-10-06T22:45:45.174Z,98348.32
2018-10-06T22:48:13.491Z,98350.13
2018-10-06T22:50:41.814Z,98355.10
2018-10-06T22:53:10.204Z,98357.53
2018-10-06T22:55:39.366Z,98346.91
2018-10-06T22:58:07.667Z,98347.42
2018-10-06T23:00:35.968Z,98343.55
2018-10-06T23:03:04.414Z,98351.52
2018-10-06T23:05:32.683Z,98350.85
2018-10-06T23:08:00.984Z,98346.87
2018-10-06T23:10:29.310Z,98346.02
2018-10-06T23:12:57.607Z,98349.30
2018-10-06T23:15:25.929Z,98351.77
2018-10-06T23:17:54.244Z,98354.42
2018-10-06T23:20:22.874Z,98352.39
2018-10-06T23:22:51.501Z,98359.03
2018-10-06T23:25:20.098Z,98363.16
2018-10-06T23:27:48.643Z,98360.50
2018-10-06T23:30:17.015Z,98363.30
2018-10-06T23:32:45.395Z,98371.73
2018-10-06T23:35:13.726Z,98367.90
2018-10-06T23:37:42.063Z,98370.55
2018-10-06T23:40:10.359Z,98373.35
2018-10-06T23:42:38.709Z,98367.67
2018-10-06T23:45:07.067Z,98373.50
2018-10-06T23:47:35.445Z,98387.73
2018-10-06T23:50:03.982Z,98391.66
2018-10-06T23:52:32.291Z,98398.96
2018-10-06T23:55:00.583Z,98408.39
2018-10-06T23:57:28.984Z,98402.75
2018-10-06T23:59:57.271Z,98407.69
